sensor_id;sensor_type;location;lat;lon;timestamp;P1;durP1;ratioP1;P2;durP2;ratioP2
10947;SDS011;5526;42.070;24.752;2023-06-14T00:01:34;6.07;;;5.57;;
10947;SDS011;5526;42.070;24.752;2023-06-14T00:04:01;5.63;;;5.22;;
10947;SDS011;5526;42.070;24.752;2023-06-14T00:06:30;5.85;;;5.45;;
10947;SDS011;5526;42.070;24.752;2023-06-14T00:09:00;6.38;;;5.88;;
10947;SDS011;5526;42.070;24.752;2023-06-14T00:11:28;5.93;;;5.60;;
10947;SDS011;5526;42.070;24.752;2023-06-14T00:13:55;6.00;;;5.70;;
10947;SDS011;5526;42.070;24.752;2023-06-14T00:16:23;6.47;;;5.97;;
10947;SDS011;5526;42.070;24.752;2023-06-14T00:18:50;6.38;;;5.82;;
10947;SDS011;5526;42.070;24.752;2023-06-14T00:21:17;5.60;;;5.25;;
10947;SDS011;5526;42.070;24.752;2023-06-14T00:23:45;6.22;;;5.72;;
10947;SDS011;5526;42.070;24.752;2023-06-14T00:26:14;5.90;;;5.50;;
10947;SDS011;5526;42.070;24.752;2023-06-14T00:28:41;6.15;;;5.75;;
10947;SDS011;5526;42.070;24.752;2023-06-14T00:31:08;6.22;;;5.70;;
10947;SDS011;5526;42.070;24.752;2023-06-14T00:33:35;6.53;;;6.05;;
10947;SDS011;5526;42.070;24.752;2023-06-14T00:36:02;5.78;;;5.35;;
10947;SDS011;5526;42.070;24.752;2023-06-14T00:38:30;6.03;;;5.63;;
10947;SDS011;5526;42.070;24.752;2023-06-14T00:40:57;6.57;;;6.07;;
10947;SDS011;5526;42.070;24.752;2023-06-14T00:43:25;6.28;;;5.88;;
10947;SDS011;5526;42.070;24.752;2023-06-14T00:45:52;6.40;;;5.90;;
10947;SDS011;5526;42.070;24.752;2023-06-14T00:48:19;6.68;;;6.05;;
10947;SDS011;5526;42.070;24.752;2023-06-14T00:50:47;6.25;;;5.75;;
10947;SDS011;5526;42.070;24.752;2023-06-14T00:53:15;6.10;;;5.70;;
10947;SDS011;5526;42.070;24.752;2023-06-14T00:55:43;7.40;;;6.90;;
10947;SDS011;5526;42.070;24.752;2023-06-14T00:58:10;6.40;;;6.00;;
10947;SDS011;5526;42.070;24.752;2023-06-14T01:00:39;6.95;;;6.45;;
10947;SDS011;5526;42.070;24.752;2023-06-14T01:03:06;7.15;;;6.55;;
10947;SDS011;5526;42.070;24.752;2023-06-14T01:05:37;7.32;;;6.82;;
10947;SDS011;5526;42.070;24.752;2023-06-14T01:08:07;8.23;;;7.53;;
10947;SDS011;5526;42.070;24.752;2023-06-14T01:10:47;7.70;;;7.20;;
10947;SDS011;5526;42.070;24.752;2023-06-14T01:13:20;7.15;;;6.43;;
10947;SDS011;5526;42.070;24.752;2023-06-14T01:15:51;7.07;;;6.57;;
10947;SDS011;5526;42.070;24.752;2023-06-14T01:18:19;7.32;;;6.72;;
10947;SDS011;5526;42.070;24.752;2023-06-14T01:20:47;7.63;;;7.03;;
10947;SDS011;5526;42.070;24.752;2023-06-14T01:23:17;7.57;;;6.97;;
10947;SDS011;5526;42.070;24.752;2023-06-14T01:25:45;6.97;;;6.47;;
10947;SDS011;5526;42.070;24.752;2023-06-14T01:28:13;8.00;;;7.38;;
10947;SDS011;5526;42.070;24.752;2023-06-14T01:30:43;8.13;;;7.47;;
10947;SDS011;5526;42.070;24.752;2023-06-14T01:33:13;7.28;;;6.78;;
10947;SDS011;5526;42.070;24.752;2023-06-14T01:35:41;7.60;;;7.00;;
10947;SDS011;5526;42.070;24.752;2023-06-14T01:38:10;7.90;;;7.30;;
10947;SDS011;5526;42.070;24.752;2023-06-14T01:40:41;7.22;;;6.70;;
10947;SDS011;5526;42.070;24.752;2023-06-14T01:43:10;8.05;;;7.35;;
10947;SDS011;5526;42.070;24.752;2023-06-14T01:45:40;7.20;;;6.78;;
10947;SDS011;5526;42.070;24.752;2023-06-14T01:48:07;8.48;;;7.78;;
10947;SDS011;5526;42.070;24.752;2023-06-14T01:50:35;7.63;;;7.13;;
10947;SDS011;5526;42.070;24.752;2023-06-14T01:53:02;8.27;;;7.70;;
10947;SDS011;5526;42.070;24.752;2023-06-14T01:55:29;7.82;;;7.25;;
10947;SDS011;5526;42.070;24.752;2023-06-14T01:58:04;8.40;;;7.65;;
10947;SDS011;5526;42.070;24.752;2023-06-14T02:00:31;9.02;;;8.23;;
10947;SDS011;5526;42.070;24.752;2023-06-14T02:02:58;8.57;;;7.97;;
10947;SDS011;5526;42.070;24.752;2023-06-14T02:05:25;8.40;;;7.80;;
10947;SDS011;5526;42.070;24.752;2023-06-14T02:07:52;8.35;;;7.70;;
10947;SDS011;5526;42.070;24.752;2023-06-14T02:10:20;8.15;;;7.55;;
10947;SDS011;5526;42.070;24.752;2023-06-14T02:12:47;8.40;;;7.70;;
10947;SDS011;5526;42.070;24.752;2023-06-14T02:15:15;7.75;;;7.15;;
10947;SDS011;5526;42.070;24.752;2023-06-14T02:17:43;8.48;;;7.88;;
10947;SDS011;5526;42.070;24.752;2023-06-14T02:20:11;7.90;;;7.30;;
10947;SDS011;5526;42.070;24.752;2023-06-14T02:22:38;8.18;;;7.45;;
10947;SDS011;5526;42.070;24.752;2023-06-14T02:25:06;8.10;;;7.50;;
10947;SDS011;5526;42.070;24.752;2023-06-14T02:27:34;9.18;;;8.32;;
10947;SDS011;5526;42.070;24.752;2023-06-14T02:30:02;9.10;;;8.20;;
10947;SDS011;5526;42.070;24.752;2023-06-14T02:32:30;8.73;;;8.10;;
10947;SDS011;5526;42.070;24.752;2023-06-14T02:34:59;8.63;;;7.93;;
10947;SDS011;5526;42.070;24.752;2023-06-14T02:37:26;8.68;;;8.00;;
10947;SDS011;5526;42.070;24.752;2023-06-14T02:39:53;8.93;;;8.27;;
10947;SDS011;5526;42.070;24.752;2023-06-14T02:42:21;9.00;;;8.40;;
10947;SDS011;5526;42.070;24.752;2023-06-14T02:44:48;9.07;;;8.48;;
10947;SDS011;5526;42.070;24.752;2023-06-14T02:47:16;9.02;;;8.32;;
10947;SDS011;5526;42.070;24.752;2023-06-14T02:49:45;9.45;;;8.75;;
10947;SDS011;5526;42.070;24.752;2023-06-14T02:52:12;8.95;;;8.23;;
10947;SDS011;5526;42.070;24.752;2023-06-14T02:54:39;9.35;;;8.55;;
10947;SDS011;5526;42.070;24.752;2023-06-14T02:57:06;9.18;;;8.38;;
10947;SDS011;5526;42.070;24.752;2023-06-14T02:59:33;9.88;;;9.07;;
10947;SDS011;5526;42.070;24.752;2023-06-14T03:02:00;9.52;;;8.82;;
10947;SDS011;5526;42.070;24.752;2023-06-14T03:04:28;9.50;;;8.70;;
10947;SDS011;5526;42.070;24.752;2023-06-14T03:07:01;9.60;;;8.80;;
10947;SDS011;5526;42.070;24.752;2023-06-14T03:09:34;10.07;;;9.32;;
10947;SDS011;5526;42.070;24.752;2023-06-14T03:12:02;10.60;;;9.55;;
10947;SDS011;5526;42.070;24.752;2023-06-14T03:14:29;10.00;;;9.20;;
10947;SDS011;5526;42.070;24.752;2023-06-14T03:16:57;9.80;;;8.90;;
10947;SDS011;5526;42.070;24.752;2023-06-14T03:19:24;9.65;;;8.85;;
10947;SDS011;5526;42.070;24.752;2023-06-14T03:21:52;9.25;;;8.48;;
10947;SDS011;5526;42.070;24.752;2023-06-14T03:24:23;9.45;;;8.75;;
10947;SDS011;5526;42.070;24.752;2023-06-14T03:26:52;9.65;;;8.85;;
10947;SDS011;5526;42.070;24.752;2023-06-14T03:29:19;9.38;;;8.68;;
10947;SDS011;5526;42.070;24.752;2023-06-14T03:31:56;10.30;;;9.40;;
10947;SDS011;5526;42.070;24.752;2023-06-14T03:34:24;9.50;;;8.65;;
10947;SDS011;5526;42.070;24.752;2023-06-14T03:36:51;10.50;;;9.70;;
10947;SDS011;5526;42.070;24.752;2023-06-14T03:39:19;10.38;;;9.38;;
10947;SDS011;5526;42.070;24.752;2023-06-14T03:41:48;10.43;;;9.63;;
10947;SDS011;5526;42.070;24.752;2023-06-14T03:44:15;10.63;;;9.82;;
10947;SDS011;5526;42.070;24.752;2023-06-14T03:46:43;10.05;;;9.25;;
10947;SDS011;5526;42.070;24.752;2023-06-14T03:49:11;10.90;;;10.20;;
10947;SDS011;5526;42.070;24.752;2023-06-14T03:51:39;10.65;;;9.63;;
10947;SDS011;5526;42.070;24.752;2023-06-14T03:54:06;10.13;;;9.43;;
10947;SDS011;5526;42.070;24.752;2023-06-14T03:56:33;10.40;;;9.45;;
10947;SDS011;5526;42.070;24.752;2023-06-14T03:59:02;10.23;;;9.32;;
10947;SDS011;5526;42.070;24.752;2023-06-14T04:01:29;10.40;;;9.50;;
10947;SDS011;5526;42.070;24.752;2023-06-14T04:03:59;10.38;;;9.48;;
10947;SDS011;5526;42.070;24.752;2023-06-14T04:06:26;10.73;;;9.73;;
10947;SDS011;5526;42.070;24.752;2023-06-14T04:08:57;10.13;;;9.32;;
10947;SDS011;5526;42.070;24.752;2023-06-14T04:11:27;10.68;;;9.75;;
10947;SDS011;5526;42.070;24.752;2023-06-14T04:13:54;10.30;;;9.52;;
10947;SDS011;5526;42.070;24.752;2023-06-14T04:16:23;10.05;;;9.32;;
10947;SDS011;5526;42.070;24.752;2023-06-14T04:18:50;10.77;;;9.88;;
10947;SDS011;5526;42.070;24.752;2023-06-14T04:21:18;11.85;;;10.95;;
10947;SDS011;5526;42.070;24.752;2023-06-14T04:23:46;12.15;;;11.10;;
10947;SDS011;5526;42.070;24.752;2023-06-14T04:26:13;12.07;;;10.95;;
10947;SDS011;5526;42.070;24.752;2023-06-14T04:28:41;13.07;;;12.05;;
10947;SDS011;5526;42.070;24.752;2023-06-14T04:31:11;13.25;;;12.15;;
10947;SDS011;5526;42.070;24.752;2023-06-14T04:33:40;13.35;;;12.35;;
10947;SDS011;5526;42.070;24.752;2023-06-14T04:36:10;14.23;;;12.85;;
10947;SDS011;5526;42.070;24.752;2023-06-14T04:38:38;14.35;;;13.25;;
10947;SDS011;5526;42.070;24.752;2023-06-14T04:41:06;14.75;;;13.52;;
10947;SDS011;5526;42.070;24.752;2023-06-14T04:43:36;17.75;;;14.60;;
10947;SDS011;5526;42.070;24.752;2023-06-14T04:46:05;15.85;;;14.55;;
10947;SDS011;5526;42.070;24.752;2023-06-14T04:48:34;16.40;;;14.93;;
10947;SDS011;5526;42.070;24.752;2023-06-14T04:51:03;17.35;;;15.80;;
10947;SDS011;5526;42.070;24.752;2023-06-14T05:04:56;17.98;;;16.38;;
10947;SDS011;5526;42.070;24.752;2023-06-14T05:07:24;16.80;;;15.35;;
10947;SDS011;5526;42.070;24.752;2023-06-14T05:09:52;15.52;;;14.32;;
10947;SDS011;5526;42.070;24.752;2023-06-14T05:12:19;15.60;;;14.23;;
10947;SDS011;5526;42.070;24.752;2023-06-14T05:14:48;16.63;;;15.32;;
10947;SDS011;5526;42.070;24.752;2023-06-14T05:17:16;16.60;;;15.18;;
10947;SDS011;5526;42.070;24.752;2023-06-14T05:19:45;16.73;;;15.32;;
10947;SDS011;5526;42.070;24.752;2023-06-14T05:22:14;16.20;;;14.80;;
10947;SDS011;5526;42.070;24.752;2023-06-14T05:24:42;15.65;;;14.30;;
10947;SDS011;5526;42.070;24.752;2023-06-14T05:27:11;16.70;;;15.15;;
10947;SDS011;5526;42.070;24.752;2023-06-14T05:29:39;16.33;;;15.00;;
10947;SDS011;5526;42.070;24.752;2023-06-14T05:32:07;16.88;;;15.40;;
10947;SDS011;5526;42.070;24.752;2023-06-14T05:34:35;16.90;;;15.55;;
10947;SDS011;5526;42.070;24.752;2023-06-14T05:37:02;15.73;;;14.27;;
10947;SDS011;5526;42.070;24.752;2023-06-14T05:39:32;15.93;;;14.38;;
10947;SDS011;5526;42.070;24.752;2023-06-14T05:42:00;14.80;;;13.70;;
10947;SDS011;5526;42.070;24.752;2023-06-14T05:44:27;14.18;;;12.98;;
10947;SDS011;5526;42.070;24.752;2023-06-14T05:46:55;14.35;;;13.02;;
10947;SDS011;5526;42.070;24.752;2023-06-14T05:49:22;13.90;;;12.80;;
10947;SDS011;5526;42.070;24.752;2023-06-14T05:51:50;14.70;;;13.23;;
10947;SDS011;5526;42.070;24.752;2023-06-14T05:54:18;14.80;;;13.40;;
10947;SDS011;5526;42.070;24.752;2023-06-14T05:56:47;15.50;;;14.20;;
10947;SDS011;5526;42.070;24.752;2023-06-14T05:59:14;14.82;;;13.63;;
10947;SDS011;5526;42.070;24.752;2023-06-14T06:01:42;15.20;;;13.90;;
10947;SDS011;5526;42.070;24.752;2023-06-14T06:04:10;15.48;;;14.00;;
10947;SDS011;5526;42.070;24.752;2023-06-14T06:06:37;15.98;;;14.40;;
10947;SDS011;5526;42.070;24.752;2023-06-14T06:09:05;16.52;;;14.98;;
10947;SDS011;5526;42.070;24.752;2023-06-14T06:11:33;14.98;;;13.70;;
10947;SDS011;5526;42.070;24.752;2023-06-14T06:14:02;15.40;;;14.20;;
10947;SDS011;5526;42.070;24.752;2023-06-14T06:16:29;15.38;;;13.88;;
10947;SDS011;5526;42.070;24.752;2023-06-14T06:18:57;14.85;;;13.68;;
10947;SDS011;5526;42.070;24.752;2023-06-14T06:21:25;14.15;;;13.00;;
10947;SDS011;5526;42.070;24.752;2023-06-14T06:23:52;12.98;;;11.98;;
10947;SDS011;5526;42.070;24.752;2023-06-14T06:26:21;14.10;;;12.70;;
10947;SDS011;5526;42.070;24.752;2023-06-14T06:28:48;13.75;;;12.45;;
10947;SDS011;5526;42.070;24.752;2023-06-14T06:31:17;12.63;;;11.52;;
10947;SDS011;5526;42.070;24.752;2023-06-14T06:33:45;12.38;;;11.48;;
10947;SDS011;5526;42.070;24.752;2023-06-14T06:36:13;11.93;;;10.93;;
10947;SDS011;5526;42.070;24.752;2023-06-14T06:38:40;11.80;;;10.70;;
10947;SDS011;5526;42.070;24.752;2023-06-14T06:41:08;13.02;;;11.98;;
10947;SDS011;5526;42.070;24.752;2023-06-14T06:43:36;12.45;;;11.35;;
10947;SDS011;5526;42.070;24.752;2023-06-14T06:46:03;8.52;;;7.82;;
10947;SDS011;5526;42.070;24.752;2023-06-14T06:48:32;8.18;;;7.68;;
10947;SDS011;5526;42.070;24.752;2023-06-14T06:51:00;9.43;;;8.65;;
10947;SDS011;5526;42.070;24.752;2023-06-14T06:53:28;9.60;;;8.80;;
10947;SDS011;5526;42.070;24.752;2023-06-14T06:55:55;10.38;;;9.05;;
10947;SDS011;5526;42.070;24.752;2023-06-14T06:58:23;10.13;;;9.23;;
10947;SDS011;5526;42.070;24.752;2023-06-14T07:00:51;9.00;;;8.30;;
10947;SDS011;5526;42.070;24.752;2023-06-14T07:03:18;9.90;;;9.10;;
10947;SDS011;5526;42.070;24.752;2023-06-14T07:05:48;10.23;;;9.38;;
10947;SDS011;5526;42.070;24.752;2023-06-14T07:08:15;10.00;;;9.30;;
10947;SDS011;5526;42.070;24.752;2023-06-14T07:10:43;10.75;;;9.75;;
10947;SDS011;5526;42.070;24.752;2023-06-14T07:13:11;12.98;;;10.43;;
10947;SDS011;5526;42.070;24.752;2023-06-14T07:15:39;10.02;;;9.23;;
10947;SDS011;5526;42.070;24.752;2023-06-14T07:18:07;10.88;;;10.07;;
10947;SDS011;5526;42.070;24.752;2023-06-14T07:20:35;11.38;;;10.32;;
10947;SDS011;5526;42.070;24.752;2023-06-14T07:23:05;11.48;;;10.57;;
10947;SDS011;5526;42.070;24.752;2023-06-14T07:25:33;11.80;;;10.80;;
10947;SDS011;5526;42.070;24.752;2023-06-14T07:28:00;11.48;;;10.57;;
10947;SDS011;5526;42.070;24.752;2023-06-14T07:30:28;11.68;;;10.70;;
10947;SDS011;5526;42.070;24.752;2023-06-14T07:32:56;11.27;;;10.40;;
10947;SDS011;5526;42.070;24.752;2023-06-14T07:35:24;10.63;;;9.82;;
10947;SDS011;5526;42.070;24.752;2023-06-14T07:37:51;10.75;;;9.95;;
10947;SDS011;5526;42.070;24.752;2023-06-14T07:40:21;10.48;;;9.57;;
10947;SDS011;5526;42.070;24.752;2023-06-14T07:42:49;10.75;;;9.95;;
10947;SDS011;5526;42.070;24.752;2023-06-14T07:45:17;10.07;;;9.20;;
10947;SDS011;5526;42.070;24.752;2023-06-14T07:47:45;11.30;;;9.73;;
10947;SDS011;5526;42.070;24.752;2023-06-14T07:50:13;11.50;;;10.60;;
10947;SDS011;5526;42.070;24.752;2023-06-14T07:52:40;12.05;;;10.48;;
10947;SDS011;5526;42.070;24.752;2023-06-14T07:55:08;11.57;;;10.68;;
10947;SDS011;5526;42.070;24.752;2023-06-14T07:57:37;11.95;;;11.10;;
10947;SDS011;5526;42.070;24.752;2023-06-14T08:00:05;12.60;;;11.57;;
10947;SDS011;5526;42.070;24.752;2023-06-14T08:02:37;12.95;;;11.90;;
10947;SDS011;5526;42.070;24.752;2023-06-14T08:05:04;15.30;;;13.88;;
10947;SDS011;5526;42.070;24.752;2023-06-14T08:07:33;15.23;;;13.38;;
10947;SDS011;5526;42.070;24.752;2023-06-14T08:10:01;15.25;;;13.98;;
10947;SDS011;5526;42.070;24.752;2023-06-14T08:12:28;13.45;;;12.35;;
10947;SDS011;5526;42.070;24.752;2023-06-14T08:14:57;16.83;;;15.15;;
10947;SDS011;5526;42.070;24.752;2023-06-14T08:17:25;15.10;;;13.77;;
10947;SDS011;5526;42.070;24.752;2023-06-14T08:19:53;15.98;;;14.57;;
10947;SDS011;5526;42.070;24.752;2023-06-14T08:22:22;17.20;;;15.57;;
10947;SDS011;5526;42.070;24.752;2023-06-14T08:24:53;15.40;;;14.20;;
10947;SDS011;5526;42.070;24.752;2023-06-14T08:27:21;15.02;;;13.93;;
10947;SDS011;5526;42.070;24.752;2023-06-14T08:29:49;14.43;;;13.32;;
10947;SDS011;5526;42.070;24.752;2023-06-14T08:32:18;16.80;;;15.30;;
10947;SDS011;5526;42.070;24.752;2023-06-14T08:34:46;16.25;;;14.85;;
10947;SDS011;5526;42.070;24.752;2023-06-14T08:37:13;15.95;;;14.55;;
10947;SDS011;5526;42.070;24.752;2023-06-14T08:39:41;15.15;;;13.95;;
10947;SDS011;5526;42.070;24.752;2023-06-14T08:42:09;14.40;;;13.30;;
10947;SDS011;5526;42.070;24.752;2023-06-14T08:44:37;15.20;;;13.90;;
10947;SDS011;5526;42.070;24.752;2023-06-14T08:47:05;14.57;;;13.48;;
10947;SDS011;5526;42.070;24.752;2023-06-14T08:49:35;14.25;;;13.05;;
10947;SDS011;5526;42.070;24.752;2023-06-14T08:52:05;14.00;;;12.90;;
10947;SDS011;5526;42.070;24.752;2023-06-14T08:54:36;13.73;;;12.68;;
10947;SDS011;5526;42.070;24.752;2023-06-14T08:57:09;14.02;;;12.93;;
10947;SDS011;5526;42.070;24.752;2023-06-14T08:59:43;14.50;;;13.30;;
10947;SDS011;5526;42.070;24.752;2023-06-14T09:02:14;14.65;;;13.55;;
10947;SDS011;5526;42.070;24.752;2023-06-14T09:04:44;13.05;;;12.05;;
10947;SDS011;5526;42.070;24.752;2023-06-14T09:07:14;13.15;;;12.13;;
10947;SDS011;5526;42.070;24.752;2023-06-14T09:09:42;13.02;;;11.95;;
10947;SDS011;5526;42.070;24.752;2023-06-14T09:12:10;12.43;;;11.43;;
10947;SDS011;5526;42.070;24.752;2023-06-14T09:14:39;12.07;;;11.27;;
10947;SDS011;5526;42.070;24.752;2023-06-14T09:17:07;13.82;;;12.85;;
10947;SDS011;5526;42.070;24.752;2023-06-14T09:19:35;14.40;;;13.30;;
10947;SDS011;5526;42.070;24.752;2023-06-14T09:22:05;12.63;;;11.73;;
10947;SDS011;5526;42.070;24.752;2023-06-14T09:24:37;14.63;;;13.43;;
10947;SDS011;5526;42.070;24.752;2023-06-14T09:27:04;14.73;;;13.35;;
10947;SDS011;5526;42.070;24.752;2023-06-14T09:29:33;13.38;;;12.30;;
10947;SDS011;5526;42.070;24.752;2023-06-14T09:32:01;12.88;;;11.88;;
10947;SDS011;5526;42.070;24.752;2023-06-14T09:34:28;13.10;;;12.10;;
10947;SDS011;5526;42.070;24.752;2023-06-14T09:36:56;12.40;;;11.50;;
10947;SDS011;5526;42.070;24.752;2023-06-14T09:39:25;12.10;;;11.20;;
10947;SDS011;5526;42.070;24.752;2023-06-14T09:41:53;13.05;;;12.05;;
10947;SDS011;5526;42.070;24.752;2023-06-14T09:44:20;11.70;;;10.90;;
10947;SDS011;5526;42.070;24.752;2023-06-14T09:46:50;14.73;;;13.73;;
10947;SDS011;5526;42.070;24.752;2023-06-14T09:49:18;14.88;;;13.77;;
10947;SDS011;5526;42.070;24.752;2023-06-14T09:51:46;17.13;;;15.73;;
10947;SDS011;5526;42.070;24.752;2023-06-14T09:54:20;17.42;;;16.08;;
10947;SDS011;5526;42.070;24.752;2023-06-14T09:56:51;19.75;;;18.15;;
10947;SDS011;5526;42.070;24.752;2023-06-14T09:59:19;20.17;;;18.35;;
10947;SDS011;5526;42.070;24.752;2023-06-14T10:01:55;20.73;;;19.15;;
10947;SDS011;5526;42.070;24.752;2023-06-14T10:04:26;18.50;;;17.10;;
10947;SDS011;5526;42.070;24.752;2023-06-14T10:06:56;18.90;;;17.33;;
10947;SDS011;5526;42.070;24.752;2023-06-14T10:09:24;19.75;;;18.15;;
10947;SDS011;5526;42.070;24.752;2023-06-14T10:11:54;19.75;;;18.23;;
10947;SDS011;5526;42.070;24.752;2023-06-14T10:14:22;19.50;;;18.00;;
10947;SDS011;5526;42.070;24.752;2023-06-14T10:16:52;19.88;;;18.42;;
10947;SDS011;5526;42.070;24.752;2023-06-14T10:19:29;20.02;;;18.33;;
10947;SDS011;5526;42.070;24.752;2023-06-14T10:22:04;19.48;;;17.95;;
10947;SDS011;5526;42.070;24.752;2023-06-14T10:24:38;18.02;;;16.70;;
10947;SDS011;5526;42.070;24.752;2023-06-14T10:27:10;16.55;;;15.35;;
10947;SDS011;5526;42.070;24.752;2023-06-14T10:32:33;15.55;;;14.55;;
10947;SDS011;5526;42.070;24.752;2023-06-14T10:35:01;15.10;;;14.10;;
10947;SDS011;5526;42.070;24.752;2023-06-14T10:37:32;14.70;;;13.60;;
10947;SDS011;5526;42.070;24.752;2023-06-14T10:40:00;15.23;;;14.13;;
10947;SDS011;5526;42.070;24.752;2023-06-14T10:42:32;15.63;;;14.50;;
10947;SDS011;5526;42.070;24.752;2023-06-14T10:45:00;14.80;;;13.60;;
10947;SDS011;5526;42.070;24.752;2023-06-14T10:47:28;14.20;;;13.20;;
10947;SDS011;5526;42.070;24.752;2023-06-14T10:49:58;13.93;;;12.93;;
10947;SDS011;5526;42.070;24.752;2023-06-14T10:52:32;14.57;;;13.57;;
10947;SDS011;5526;42.070;24.752;2023-06-14T10:55:02;13.60;;;12.70;;
10947;SDS011;5526;42.070;24.752;2023-06-14T10:57:36;13.40;;;12.50;;
10947;SDS011;5526;42.070;24.752;2023-06-14T11:00:06;14.07;;;13.07;;
10947;SDS011;5526;42.070;24.752;2023-06-14T11:05:58;14.18;;;13.07;;
10947;SDS011;5526;42.070;24.752;2023-06-14T11:11:38;14.57;;;13.48;;
10947;SDS011;5526;42.070;24.752;2023-06-14T11:14:11;14.88;;;13.90;;
10947;SDS011;5526;42.070;24.752;2023-06-14T11:16:39;15.07;;;13.98;;
10947;SDS011;5526;42.070;24.752;2023-06-14T11:19:06;14.30;;;13.20;;
10947;SDS011;5526;42.070;24.752;2023-06-14T11:21:34;14.38;;;13.35;;
10947;SDS011;5526;42.070;24.752;2023-06-14T11:24:09;16.63;;;15.40;;
10947;SDS011;5526;42.070;24.752;2023-06-14T11:26:37;15.48;;;14.48;;
10947;SDS011;5526;42.070;24.752;2023-06-14T11:29:05;15.77;;;14.77;;
10947;SDS011;5526;42.070;24.752;2023-06-14T11:31:35;16.08;;;14.98;;
10947;SDS011;5526;42.070;24.752;2023-06-14T11:34:02;15.35;;;14.15;;
10947;SDS011;5526;42.070;24.752;2023-06-14T11:36:33;16.30;;;15.02;;
10947;SDS011;5526;42.070;24.752;2023-06-14T11:39:01;16.13;;;14.85;;
10947;SDS011;5526;42.070;24.752;2023-06-14T11:41:37;16.15;;;15.05;;
10947;SDS011;5526;42.070;24.752;2023-06-14T11:44:05;15.55;;;14.50;;
10947;SDS011;5526;42.070;24.752;2023-06-14T11:46:36;15.90;;;14.80;;
10947;SDS011;5526;42.070;24.752;2023-06-14T11:49:04;15.40;;;14.43;;
10947;SDS011;5526;42.070;24.752;2023-06-14T11:51:34;15.40;;;14.40;;
10947;SDS011;5526;42.070;24.752;2023-06-14T11:54:03;16.13;;;14.82;;
10947;SDS011;5526;42.070;24.752;2023-06-14T11:56:32;16.00;;;14.80;;
10947;SDS011;5526;42.070;24.752;2023-06-14T11:59:01;16.42;;;15.18;;
10947;SDS011;5526;42.070;24.752;2023-06-14T12:01:31;16.05;;;14.95;;
10947;SDS011;5526;42.070;24.752;2023-06-14T12:04:00;16.98;;;15.77;;
10947;SDS011;5526;42.070;24.752;2023-06-14T12:06:29;15.35;;;14.25;;
10947;SDS011;5526;42.070;24.752;2023-06-14T12:09:03;16.05;;;14.90;;
10947;SDS011;5526;42.070;24.752;2023-06-14T12:11:32;15.43;;;14.25;;
10947;SDS011;5526;42.070;24.752;2023-06-14T12:14:02;16.20;;;15.02;;
10947;SDS011;5526;42.070;24.752;2023-06-14T12:16:31;16.13;;;15.02;;
10947;SDS011;5526;42.070;24.752;2023-06-14T12:19:09;15.38;;;14.38;;
10947;SDS011;5526;42.070;24.752;2023-06-14T12:21:39;14.43;;;13.52;;
10947;SDS011;5526;42.070;24.752;2023-06-14T12:24:07;14.43;;;13.52;;
10947;SDS011;5526;42.070;24.752;2023-06-14T12:26:40;14.65;;;13.65;;
10947;SDS011;5526;42.070;24.752;2023-06-14T12:29:08;13.93;;;12.77;;
10947;SDS011;5526;42.070;24.752;2023-06-14T12:31:37;14.32;;;13.20;;
10947;SDS011;5526;42.070;24.752;2023-06-14T12:34:05;13.40;;;12.60;;
10947;SDS011;5526;42.070;24.752;2023-06-14T12:36:34;13.40;;;12.55;;
10947;SDS011;5526;42.070;24.752;2023-06-14T12:39:07;12.85;;;12.05;;
10947;SDS011;5526;42.070;24.752;2023-06-14T12:41:35;12.95;;;12.15;;
10947;SDS011;5526;42.070;24.752;2023-06-14T12:44:03;13.85;;;12.93;;
10947;SDS011;5526;42.070;24.752;2023-06-14T12:46:31;12.90;;;12.10;;
10947;SDS011;5526;42.070;24.752;2023-06-14T12:48:59;13.05;;;12.25;;
10947;SDS011;5526;42.070;24.752;2023-06-14T12:51:26;13.52;;;12.60;;
10947;SDS011;5526;42.070;24.752;2023-06-14T12:53:55;13.48;;;12.57;;
10947;SDS011;5526;42.070;24.752;2023-06-14T12:56:23;13.57;;;12.75;;
10947;SDS011;5526;42.070;24.752;2023-06-14T12:58:51;14.00;;;13.13;;
10947;SDS011;5526;42.070;24.752;2023-06-14T13:01:19;13.82;;;12.93;;
10947;SDS011;5526;42.070;24.752;2023-06-14T13:03:47;14.30;;;13.20;;
10947;SDS011;5526;42.070;24.752;2023-06-14T13:06:17;15.25;;;14.05;;
10947;SDS011;5526;42.070;24.752;2023-06-14T13:08:45;14.50;;;13.48;;
10947;SDS011;5526;42.070;24.752;2023-06-14T13:11:14;12.20;;;11.35;;
10947;SDS011;5526;42.070;24.752;2023-06-14T13:13:41;12.68;;;11.57;;
10947;SDS011;5526;42.070;24.752;2023-06-14T13:16:09;12.70;;;11.77;;
10947;SDS011;5526;42.070;24.752;2023-06-14T13:18:38;12.57;;;11.77;;
10947;SDS011;5526;42.070;24.752;2023-06-14T13:21:06;12.25;;;11.38;;
10947;SDS011;5526;42.070;24.752;2023-06-14T13:23:34;12.02;;;11.23;;
10947;SDS011;5526;42.070;24.752;2023-06-14T13:26:02;11.27;;;10.48;;
10947;SDS011;5526;42.070;24.752;2023-06-14T13:28:31;10.52;;;9.82;;
10947;SDS011;5526;42.070;24.752;2023-06-14T13:31:00;11.57;;;10.70;;
10947;SDS011;5526;42.070;24.752;2023-06-14T13:33:28;11.50;;;10.70;;
10947;SDS011;5526;42.070;24.752;2023-06-14T13:35:56;11.20;;;10.27;;
10947;SDS011;5526;42.070;24.752;2023-06-14T13:38:24;11.35;;;10.40;;
10947;SDS011;5526;42.070;24.752;2023-06-14T13:40:51;10.80;;;10.00;;
10947;SDS011;5526;42.070;24.752;2023-06-14T13:43:20;11.10;;;10.30;;
10947;SDS011;5526;42.070;24.752;2023-06-14T13:45:49;9.80;;;9.20;;
10947;SDS011;5526;42.070;24.752;2023-06-14T13:48:17;8.90;;;8.32;;
10947;SDS011;5526;42.070;24.752;2023-06-14T13:50:45;10.30;;;9.52;;
10947;SDS011;5526;42.070;24.752;2023-06-14T13:53:13;9.73;;;9.13;;
10947;SDS011;5526;42.070;24.752;2023-06-14T13:55:40;9.93;;;9.32;;
10947;SDS011;5526;42.070;24.752;2023-06-14T13:58:08;9.52;;;8.82;;
10947;SDS011;5526;42.070;24.752;2023-06-14T14:00:36;9.85;;;9.15;;
10947;SDS011;5526;42.070;24.752;2023-06-14T14:03:07;10.18;;;9.48;;
10947;SDS011;5526;42.070;24.752;2023-06-14T14:05:35;9.40;;;8.60;;
10947;SDS011;5526;42.070;24.752;2023-06-14T14:08:03;9.13;;;8.52;;
10947;SDS011;5526;42.070;24.752;2023-06-14T14:10:31;8.38;;;7.88;;
10947;SDS011;5526;42.070;24.752;2023-06-14T14:12:59;8.82;;;8.18;;
10947;SDS011;5526;42.070;24.752;2023-06-14T14:15:26;9.15;;;8.55;;
10947;SDS011;5526;42.070;24.752;2023-06-14T14:17:55;8.77;;;8.15;;
10947;SDS011;5526;42.070;24.752;2023-06-14T14:20:24;8.68;;;8.07;;
10947;SDS011;5526;42.070;24.752;2023-06-14T14:22:52;7.57;;;7.05;;
10947;SDS011;5526;42.070;24.752;2023-06-14T14:25:19;7.47;;;6.97;;
10947;SDS011;5526;42.070;24.752;2023-06-14T14:27:47;7.82;;;7.22;;
10947;SDS011;5526;42.070;24.752;2023-06-14T14:30:15;8.15;;;7.45;;
10947;SDS011;5526;42.070;24.752;2023-06-14T14:32:45;7.65;;;7.03;;
10947;SDS011;5526;42.070;24.752;2023-06-14T14:35:13;7.10;;;6.60;;
10947;SDS011;5526;42.070;24.752;2023-06-14T14:37:42;7.60;;;7.20;;
10947;SDS011;5526;42.070;24.752;2023-06-14T14:40:11;6.75;;;6.35;;
10947;SDS011;5526;42.070;24.752;2023-06-14T14:42:39;7.85;;;7.35;;
10947;SDS011;5526;42.070;24.752;2023-06-14T14:45:07;7.95;;;7.25;;
10947;SDS011;5526;42.070;24.752;2023-06-14T14:47:36;8.07;;;7.47;;
10947;SDS011;5526;42.070;24.752;2023-06-14T14:50:04;7.53;;;6.80;;
10947;SDS011;5526;42.070;24.752;2023-06-14T14:52:34;7.03;;;6.53;;
10947;SDS011;5526;42.070;24.752;2023-06-14T14:55:03;6.50;;;6.10;;
10947;SDS011;5526;42.070;24.752;2023-06-14T14:57:32;6.50;;;6.00;;
10947;SDS011;5526;42.070;24.752;2023-06-14T15:00:02;6.20;;;5.80;;